createdAt,value
2022-11-20T00:01:09.285Z,5.00
2022-11-20T00:03:57.214Z,4.90
2022-11-20T00:06:45.441Z,5.00
2022-11-20T00:09:32.046Z,4.80
2022-11-20T00:12:20.301Z,4.70
2022-11-20T00:15:07.224Z,4.70
2022-11-20T00:17:55.267Z,4.80
2022-11-20T00:20:41.920Z,5.20
2022-11-20T00:23:30.339Z,4.80
2022-11-20T00:26:17.915Z,4.80
2022-11-20T00:29:06.276Z,4.80
2022-11-20T00:31:52.960Z,4.80
2022-11-20T00:34:41.291Z,4.90
2022-11-20T00:37:28.010Z,4.80
2022-11-20T00:40:16.297Z,5.40
2022-11-20T00:43:02.884Z,4.80
2022-11-20T00:45:51.337Z,4.70
2022-11-20T00:48:37.950Z,4.70
2022-11-20T00:51:27.247Z,4.70
2022-11-20T00:54:13.898Z,4.70
2022-11-20T00:57:02.278Z,4.60
2022-11-20T00:59:48.912Z,4.70
2022-11-20T01:02:37.292Z,4.50
2022-11-20T01:05:23.935Z,4.60
2022-11-20T01:08:12.298Z,4.50
2022-11-20T01:11:03.342Z,4.60
2022-11-20T01:13:53.300Z,4.60
2022-11-20T01:16:50.685Z,4.60
2022-11-20T01:19:39.290Z,4.60
2022-11-20T01:22:25.914Z,4.60
2022-11-20T01:25:14.311Z,4.80
2022-11-20T01:28:00.920Z,4.60
2022-11-20T01:30:49.326Z,4.50
2022-11-20T01:33:36.099Z,4.80
2022-11-20T01:36:25.268Z,4.50
2022-11-20T01:39:16.419Z,4.50
2022-11-20T01:42:23.304Z,4.50
2022-11-20T01:45:28.749Z,4.40
2022-11-20T01:48:17.222Z,4.40
2022-11-20T01:51:04.656Z,4.40
2022-11-20T01:53:54.301Z,4.40
2022-11-20T01:56:42.884Z,4.50
2022-11-20T01:59:31.266Z,4.50
2022-11-20T02:02:17.939Z,4.40
2022-11-20T02:05:17.235Z,4.50
2022-11-20T02:08:05.480Z,4.50
2022-11-20T02:10:53.232Z,4.50
2022-11-20T02:13:45.990Z,4.90
2022-11-20T02:16:39.282Z,4.50
2022-11-20T02:19:28.264Z,4.70
2022-11-20T02:22:26.247Z,4.40
2022-11-20T02:25:13.219Z,4.40
2022-11-20T02:28:01.206Z,4.40
2022-11-20T02:30:47.849Z,4.20
2022-11-20T02:33:36.262Z,4.40
2022-11-20T02:36:22.967Z,4.10
2022-11-20T02:39:12.255Z,4.50
2022-11-20T02:41:58.993Z,3.90
2022-11-20T02:44:47.223Z,4.00
2022-11-20T02:47:33.874Z,3.90
2022-11-20T02:50:22.272Z,3.80
2022-11-20T02:53:09.005Z,3.80
2022-11-20T02:55:57.261Z,3.60
2022-11-20T02:58:43.868Z,4.00
2022-11-20T03:01:32.248Z,3.50
2022-11-20T03:04:18.936Z,3.60
2022-11-20T03:07:07.241Z,3.60
2022-11-20T03:09:53.875Z,3.50
2022-11-20T03:12:42.208Z,3.50
2022-11-20T03:15:28.874Z,4.10
2022-11-20T03:18:17.255Z,3.60
2022-11-20T03:21:04.384Z,3.50
2022-11-20T03:23:52.226Z,3.40
2022-11-20T03:26:39.706Z,3.30
2022-11-20T03:29:28.227Z,3.90
2022-11-20T03:32:14.810Z,3.40
2022-11-20T03:35:03.253Z,3.50
2022-11-20T03:37:49.922Z,3.50
2022-11-20T03:40:38.289Z,3.50
2022-11-20T03:43:24.916Z,4.00
2022-11-20T03:46:13.180Z,3.60
2022-11-20T03:48:59.830Z,3.50
2022-11-20T03:51:48.601Z,3.50
2022-11-20T03:54:35.321Z,3.90
2022-11-20T03:57:23.247Z,3.50
2022-11-20T04:00:10.169Z,3.80
2022-11-20T04:03:02.181Z,3.50
2022-11-20T04:05:48.883Z,3.50
2022-11-20T04:08:37.221Z,3.60
2022-11-20T04:11:28.157Z,3.60
2022-11-20T04:14:17.228Z,3.60
2022-11-20T04:17:04.429Z,3.70
2022-11-20T04:19:52.219Z,3.70
2022-11-20T04:22:38.852Z,3.80
2022-11-20T04:25:27.212Z,4.40
2022-11-20T04:28:13.864Z,3.90
2022-11-20T04:31:06.165Z,3.90
2022-11-20T04:33:53.051Z,3.80
2022-11-20T04:36:41.177Z,3.80
2022-11-20T04:39:27.886Z,3.70
2022-11-20T04:42:31.169Z,3.70
2022-11-20T04:45:17.783Z,3.90
2022-11-20T04:48:06.211Z,3.60
2022-11-20T04:50:53.000Z,3.40
2022-11-20T04:53:41.211Z,3.80
2022-11-20T04:56:27.826Z,3.30
2022-11-20T04:59:16.187Z,3.30
2022-11-20T05:02:03.028Z,3.30
2022-11-20T05:04:51.169Z,3.70
2022-11-20T05:07:37.778Z,4.00
2022-11-20T05:10:26.202Z,3.80
2022-11-20T05:13:12.792Z,3.80
2022-11-20T05:16:06.186Z,4.00
2022-11-20T05:18:54.011Z,4.00
2022-11-20T05:21:42.197Z,4.10
2022-11-20T05:24:28.786Z,3.90
2022-11-20T05:27:15.417Z,3.90
2022-11-20T05:30:02.255Z,4.20
2022-11-20T05:32:48.854Z,3.70
2022-11-20T05:35:35.513Z,3.50
2022-11-20T05:38:22.178Z,3.50
2022-11-20T05:41:13.249Z,3.50
2022-11-20T05:43:59.992Z,3.50
2022-11-20T05:46:46.611Z,3.40
2022-11-20T05:49:33.394Z,3.40
2022-11-20T05:52:20.143Z,3.40
2022-11-20T05:55:07.373Z,3.60
2022-11-20T05:57:54.972Z,3.40
2022-11-20T06:00:41.616Z,3.60
2022-11-20T06:03:28.246Z,3.40
2022-11-20T06:06:15.603Z,3.80
2022-11-20T06:09:02.279Z,4.00
2022-11-20T06:11:48.878Z,3.60
2022-11-20T06:14:35.475Z,3.60
2022-11-20T06:17:22.128Z,3.60
2022-11-20T06:20:09.092Z,4.10
2022-11-20T06:22:55.746Z,3.60
2022-11-20T06:25:43.019Z,3.60
2022-11-20T06:28:29.735Z,3.50
2022-11-20T06:31:17.291Z,3.50
2022-11-20T06:34:04.620Z,3.70
2022-11-20T06:36:51.218Z,3.30
2022-11-20T06:39:37.906Z,3.50
2022-11-20T06:42:24.577Z,3.20
2022-11-20T06:45:11.499Z,3.20
2022-11-20T06:47:58.538Z,3.20
2022-11-20T06:50:45.189Z,3.20
2022-11-20T06:53:32.024Z,3.10
2022-11-20T06:56:18.680Z,3.10
2022-11-20T06:59:06.938Z,3.10
2022-11-20T07:01:53.597Z,3.20
2022-11-20T07:04:40.615Z,3.20
2022-11-20T07:07:27.325Z,3.50
2022-11-20T07:10:14.032Z,3.60
2022-11-20T07:13:00.753Z,3.40
2022-11-20T07:15:47.393Z,3.50
2022-11-20T07:18:34.388Z,3.60
2022-11-20T07:21:21.060Z,3.80
2022-11-20T07:24:08.130Z,4.10
2022-11-20T07:26:54.733Z,3.70
2022-11-20T07:29:41.337Z,3.90
2022-11-20T07:32:27.957Z,3.70
2022-11-20T07:35:14.932Z,3.80
2022-11-20T07:38:01.571Z,3.80
2022-11-20T07:40:48.237Z,3.80
2022-11-20T07:43:41.005Z,3.90
2022-11-20T07:46:28.193Z,4.10
2022-11-20T07:49:14.815Z,4.70
2022-11-20T07:52:04.757Z,4.30
2022-11-20T07:54:51.995Z,4.20
2022-11-20T07:57:38.702Z,4.20
2022-11-20T08:00:26.140Z,4.60
2022-11-20T08:03:13.039Z,4.00
2022-11-20T08:06:01.603Z,4.20
2022-11-20T08:08:48.267Z,4.10
2022-11-20T08:11:53.426Z,4.10
2022-11-20T08:14:43.143Z,4.50
2022-11-20T08:17:29.763Z,4.10
2022-11-20T08:20:18.131Z,4.00
2022-11-20T08:23:07.085Z,3.90
2022-11-20T08:25:55.115Z,3.80
2022-11-20T08:28:41.735Z,3.90
2022-11-20T08:31:30.127Z,4.20
2022-11-20T08:34:19.210Z,4.50
2022-11-20T08:37:09.101Z,4.80
2022-11-20T08:39:57.919Z,5.10
2022-11-20T08:42:50.157Z,5.40
2022-11-20T08:45:36.781Z,5.50
2022-11-20T08:48:25.093Z,5.80
2022-11-20T08:51:12.619Z,6.20
2022-11-20T08:54:01.151Z,6.70
2022-11-20T08:56:47.796Z,6.60
2022-11-20T09:00:05.530Z,6.40
2022-11-20T09:02:42.671Z,6.00
2022-11-20T09:05:31.083Z,5.90
2022-11-20T09:08:17.697Z,5.90
2022-11-20T09:11:07.104Z,5.90
2022-11-20T09:13:53.722Z,6.00
2022-11-20T09:16:42.117Z,6.20
2022-11-20T09:19:35.441Z,6.20
2022-11-20T09:22:24.076Z,6.20
2022-11-20T09:25:10.714Z,6.30
2022-11-20T09:28:02.119Z,6.20
2022-11-20T09:30:48.779Z,6.30
2022-11-20T09:33:37.122Z,6.40
2022-11-20T09:36:23.770Z,6.30
2022-11-20T09:39:12.072Z,6.50
2022-11-20T09:41:58.690Z,6.40
2022-11-20T09:45:05.054Z,6.60
2022-11-20T09:47:55.777Z,6.50
2022-11-20T09:50:50.149Z,6.50
2022-11-20T09:53:45.112Z,6.50
2022-11-20T09:56:36.080Z,6.50
2022-11-20T09:59:37.308Z,6.50
2022-11-20T10:02:25.111Z,6.50
2022-11-20T10:05:28.241Z,6.50
2022-11-20T10:08:16.291Z,6.50
2022-11-20T10:11:12.427Z,6.50
2022-11-20T10:14:23.102Z,6.60
2022-11-20T10:17:33.003Z,6.60
2022-11-20T10:20:40.088Z,6.70
2022-11-20T10:23:45.870Z,6.70
2022-11-20T10:26:49.070Z,6.70
2022-11-20T10:29:37.535Z,6.70
2022-11-20T10:32:31.086Z,6.70
2022-11-20T10:35:29.809Z,6.80
2022-11-20T10:38:24.054Z,6.80
2022-11-20T10:41:28.647Z,6.90
2022-11-20T10:44:38.103Z,7.00
2022-11-20T10:47:26.486Z,7.30
2022-11-20T10:50:22.468Z,7.50
2022-11-20T10:53:28.289Z,7.90
2022-11-20T10:56:25.061Z,9.10
2022-11-20T10:59:29.273Z,10.90
2022-11-20T11:02:22.111Z,12.50
2022-11-20T11:05:15.725Z,11.70
2022-11-20T11:08:06.086Z,12.10
2022-11-20T11:10:54.321Z,12.50
2022-11-20T11:13:44.057Z,11.90
2022-11-20T11:16:30.766Z,11.10
2022-11-20T11:19:21.377Z,11.00
2022-11-20T11:22:11.929Z,13.60
2022-11-20T11:25:00.091Z,17.80
2022-11-20T11:27:50.751Z,23.70
2022-11-20T11:30:46.027Z,26.50
2022-11-20T11:33:34.623Z,27.60
2022-11-20T11:36:25.042Z,29.40
2022-11-20T11:39:19.545Z,29.90
2022-11-20T11:42:08.087Z,27.40
2022-11-20T11:45:08.429Z,23.40
2022-11-20T11:47:58.032Z,20.50
2022-11-20T11:50:49.378Z,18.30
2022-11-20T11:53:41.042Z,17.00
2022-11-20T11:56:29.402Z,17.50
2022-11-20T11:59:25.495Z,18.60
2022-11-20T12:02:24.356Z,19.40
2022-11-20T12:05:17.072Z,20.40
2022-11-20T12:08:12.186Z,22.10
2022-11-20T12:11:13.047Z,24.40
2022-11-20T12:14:05.282Z,26.70
2022-11-20T12:16:55.062Z,29.70
2022-11-20T12:19:41.943Z,31.90
2022-11-20T12:22:33.062Z,32.20
2022-11-20T12:25:25.209Z,33.10
2022-11-20T12:28:18.080Z,33.70
2022-11-20T12:31:04.701Z,34.30
2022-11-20T12:34:16.030Z,34.60
2022-11-20T12:37:08.971Z,34.60
2022-11-20T12:40:01.087Z,34.50
2022-11-20T12:43:06.505Z,33.60
2022-11-20T12:45:55.054Z,32.50
2022-11-20T12:48:46.415Z,31.50
2022-11-20T12:51:50.057Z,30.30
2022-11-20T12:54:52.072Z,28.70
2022-11-20T12:57:52.030Z,27.20
2022-11-20T13:00:40.945Z,25.70
2022-11-20T13:03:38.015Z,24.30
2022-11-20T13:06:25.495Z,23.00
2022-11-20T13:09:16.063Z,21.60
2022-11-20T13:12:07.431Z,20.30
2022-11-20T13:15:09.058Z,19.00
2022-11-20T13:17:58.901Z,17.70
2022-11-20T13:20:48.045Z,16.10
2022-11-20T13:23:34.694Z,14.50
2022-11-20T13:26:26.011Z,13.10
2022-11-20T13:29:17.312Z,12.10
2022-11-20T13:32:10.027Z,11.60
2022-11-20T13:34:58.101Z,11.20
2022-11-20T13:37:46.075Z,10.80
2022-11-20T13:40:33.414Z,10.50
2022-11-20T13:43:39.153Z,10.20
2022-11-20T13:46:35.833Z,9.80
2022-11-20T13:49:27.051Z,9.50
2022-11-20T13:52:32.536Z,9.20
2022-11-20T13:55:42.042Z,9.10
2022-11-20T13:58:44.041Z,8.90
2022-11-20T14:01:38.114Z,8.80
2022-11-20T14:04:29.833Z,8.70
2022-11-20T14:07:19.074Z,8.60
2022-11-20T14:10:06.249Z,8.60
2022-11-20T14:12:56.019Z,8.60
2022-11-20T14:15:45.263Z,8.70
2022-11-20T14:18:33.971Z,8.60
2022-11-20T14:21:27.780Z,8.50
2022-11-20T14:24:16.036Z,8.40
2022-11-20T14:27:02.744Z,8.20
2022-11-20T14:29:53.971Z,8.10
2022-11-20T14:32:41.540Z,8.10
2022-11-20T14:35:30.999Z,8.00
2022-11-20T14:38:36.510Z,7.80
2022-11-20T14:41:26.030Z,7.70
2022-11-20T14:44:12.704Z,7.50
2022-11-20T14:47:01.996Z,7.40
2022-11-20T14:49:49.649Z,7.50
2022-11-20T14:52:38.020Z,7.40
2022-11-20T14:55:30.782Z,7.20
2022-11-20T14:58:25.998Z,7.10
2022-11-20T15:01:13.517Z,7.10
2022-11-20T15:04:09.008Z,7.20
2022-11-20T15:06:56.965Z,7.00
2022-11-20T15:09:45.031Z,7.00
2022-11-20T15:12:32.560Z,6.90
2022-11-20T15:15:23.962Z,6.90
2022-11-20T15:18:17.521Z,6.70
2022-11-20T15:21:06.005Z,6.60
2022-11-20T15:23:52.725Z,6.50
2022-11-20T15:26:43.002Z,6.40
2022-11-20T15:29:29.686Z,6.30
2022-11-20T15:32:17.953Z,6.30
2022-11-20T15:35:04.852Z,6.40
2022-11-20T15:37:52.994Z,6.40
2022-11-20T15:40:39.842Z,6.40
2022-11-20T15:43:27.991Z,6.00
2022-11-20T15:46:16.286Z,5.90
2022-11-20T15:49:05.997Z,5.80
2022-11-20T15:51:54.209Z,5.60
2022-11-20T15:54:41.967Z,5.60
2022-11-20T15:57:28.602Z,5.50
2022-11-20T16:00:23.407Z,5.60
2022-11-20T16:03:11.747Z,5.60
2022-11-20T16:05:59.985Z,5.50
2022-11-20T16:08:46.988Z,5.40
2022-11-20T16:11:35.949Z,5.30
2022-11-20T16:14:41.314Z,5.60
2022-11-20T16:17:44.990Z,5.40
2022-11-20T16:20:31.572Z,5.50
2022-11-20T16:23:20.001Z,5.70
2022-11-20T16:26:10.453Z,5.70
2022-11-20T16:28:58.939Z,5.80
2022-11-20T16:31:45.552Z,5.70
2022-11-20T16:34:33.985Z,5.50
2022-11-20T16:37:20.641Z,5.50
2022-11-20T16:40:08.989Z,5.50
2022-11-20T16:42:55.665Z,5.60
2022-11-20T16:45:44.937Z,5.70
2022-11-20T16:48:31.639Z,6.00
2022-11-20T16:51:20.133Z,5.80
2022-11-20T16:54:07.760Z,5.80
2022-11-20T16:56:56.766Z,5.70
2022-11-20T16:59:43.461Z,5.60
2022-11-20T17:02:31.976Z,5.50
2022-11-20T17:05:18.611Z,5.70
2022-11-20T17:08:07.078Z,5.80
2022-11-20T17:10:53.757Z,5.60
2022-11-20T17:13:41.920Z,5.60
2022-11-20T17:16:28.551Z,5.50
2022-11-20T17:19:16.945Z,5.60
2022-11-20T17:22:03.699Z,5.50
2022-11-20T17:24:51.940Z,5.40
2022-11-20T17:27:38.562Z,5.30
2022-11-20T17:30:26.943Z,5.80
2022-11-20T17:33:13.611Z,5.20
2022-11-20T17:36:01.953Z,5.30
2022-11-20T17:38:48.927Z,5.70
2022-11-20T17:41:36.969Z,5.50
2022-11-20T17:44:23.930Z,6.00
2022-11-20T17:47:11.980Z,5.50
2022-11-20T17:49:58.682Z,6.00
2022-11-20T17:52:46.941Z,5.40
2022-11-20T17:55:55.864Z,5.50
2022-11-20T17:58:44.936Z,5.50
2022-11-20T18:01:31.983Z,5.70
2022-11-20T18:04:19.937Z,5.50
2022-11-20T18:07:06.590Z,5.60
2022-11-20T18:09:54.980Z,5.50
2022-11-20T18:12:41.566Z,5.40
2022-11-20T18:15:29.934Z,5.40
2022-11-20T18:18:16.556Z,5.10
2022-11-20T18:21:04.989Z,5.30
2022-11-20T18:23:51.722Z,5.50
2022-11-20T18:26:44.076Z,5.50
2022-11-20T18:29:31.499Z,6.20
2022-11-20T18:32:20.899Z,5.70
2022-11-20T18:35:07.774Z,5.70
2022-11-20T18:37:55.882Z,5.80
2022-11-20T18:40:42.557Z,5.80
2022-11-20T18:43:49.938Z,6.10
2022-11-20T18:46:38.108Z,5.80
2022-11-20T18:49:26.925Z,5.80
2022-11-20T18:52:13.631Z,5.80
2022-11-20T18:55:02.933Z,5.70
2022-11-20T18:57:49.701Z,5.70
2022-11-20T19:00:37.988Z,5.80
2022-11-20T19:03:27.039Z,5.70
2022-11-20T19:06:15.896Z,5.70
2022-11-20T19:09:04.601Z,6.00
2022-11-20T19:11:54.522Z,5.50
2022-11-20T19:14:41.216Z,5.50
2022-11-20T19:17:27.861Z,5.40
2022-11-20T19:20:14.564Z,5.30
2022-11-20T19:23:01.261Z,5.10
2022-11-20T19:25:48.246Z,5.00
2022-11-20T19:28:35.733Z,5.00
2022-11-20T19:31:27.313Z,5.00
2022-11-20T19:34:14.487Z,4.90
2022-11-20T19:37:01.183Z,4.70
2022-11-20T19:39:47.871Z,5.00
2022-11-20T19:42:34.534Z,4.60
2022-11-20T19:45:21.214Z,5.10
2022-11-20T19:48:08.663Z,4.60
2022-11-20T19:50:55.469Z,4.50
2022-11-20T19:53:42.482Z,4.80
2022-11-20T19:56:30.563Z,4.40
2022-11-20T19:59:17.288Z,4.90
2022-11-20T20:02:04.103Z,4.20
2022-11-20T20:04:50.834Z,4.80
2022-11-20T20:07:40.144Z,4.40
2022-11-20T20:10:27.473Z,4.10
2022-11-20T20:13:14.163Z,3.90
2022-11-20T20:16:00.790Z,3.90
2022-11-20T20:18:47.846Z,4.00
2022-11-20T20:21:35.383Z,4.10
2022-11-20T20:24:22.095Z,4.30
2022-11-20T20:27:08.710Z,4.30
2022-11-20T20:29:55.339Z,4.60
2022-11-20T20:32:41.990Z,4.50
2022-11-20T20:35:28.622Z,4.50
2022-11-20T20:38:15.351Z,4.50
2022-11-20T20:41:02.179Z,4.60
2022-11-20T20:44:07.596Z,4.70
2022-11-20T20:46:54.306Z,4.70
2022-11-20T20:49:43.191Z,4.80
2022-11-20T20:52:29.956Z,4.90
2022-11-20T20:55:16.630Z,5.40
2022-11-20T20:58:03.584Z,4.90
2022-11-20T21:00:50.503Z,4.90
2022-11-20T21:03:37.548Z,5.20
2022-11-20T21:06:24.450Z,5.00
2022-11-20T21:09:11.183Z,5.60
2022-11-20T21:11:57.874Z,5.00
2022-11-20T21:14:44.587Z,5.00
2022-11-20T21:17:31.289Z,5.00
2022-11-20T21:20:36.637Z,5.00
2022-11-20T21:23:23.239Z,5.00
2022-11-20T21:26:10.218Z,5.00
2022-11-20T21:28:57.090Z,5.00
2022-11-20T21:31:43.794Z,5.00
2022-11-20T21:34:30.774Z,5.50
2022-11-20T21:37:17.538Z,4.90
2022-11-20T21:40:04.327Z,5.00
2022-11-20T21:42:51.029Z,4.90
2022-11-20T21:45:37.775Z,4.90
2022-11-20T21:48:27.655Z,5.40
2022-11-20T21:51:15.848Z,4.90
2022-11-20T21:54:02.565Z,4.90
2022-11-20T21:56:49.290Z,4.90
2022-11-20T21:59:36.083Z,5.60
2022-11-20T22:02:22.743Z,4.80
2022-11-20T22:05:09.494Z,5.40
2022-11-20T22:07:56.152Z,4.80
2022-11-20T22:10:42.771Z,4.80
2022-11-20T22:13:47.993Z,5.40
2022-11-20T22:16:35.780Z,4.80
2022-11-20T22:19:23.179Z,4.80
2022-11-20T22:22:09.869Z,4.80
2022-11-20T22:24:56.611Z,4.80
2022-11-20T22:27:45.867Z,4.80
2022-11-20T22:30:32.493Z,5.40
2022-11-20T22:33:19.183Z,4.90
2022-11-20T22:36:13.410Z,4.90
2022-11-20T22:39:02.015Z,4.90
2022-11-20T22:41:48.790Z,5.00
2022-11-20T22:44:35.431Z,5.20
2022-11-20T22:47:22.059Z,5.00
2022-11-20T22:50:08.868Z,5.60
2022-11-20T22:52:55.482Z,5.00
2022-11-20T22:55:42.202Z,5.00
2022-11-20T22:58:29.790Z,5.10
2022-11-20T23:01:24.051Z,5.00
2022-11-20T23:04:10.839Z,5.00
2022-11-20T23:06:57.528Z,5.00
2022-11-20T23:09:44.190Z,5.60
2022-11-20T23:12:30.799Z,5.10
2022-11-20T23:15:17.488Z,5.60
2022-11-20T23:18:04.192Z,5.10
2022-11-20T23:20:50.870Z,5.10
2022-11-20T23:23:37.688Z,5.10
2022-11-20T23:26:25.815Z,5.10
2022-11-20T23:29:12.937Z,5.20
2022-11-20T23:31:59.619Z,5.20
2022-11-20T23:34:46.291Z,5.30
2022-11-20T23:37:32.926Z,5.30
2022-11-20T23:40:19.555Z,5.30
2022-11-20T23:43:15.347Z,5.30
2022-11-20T23:46:02.532Z,5.30
2022-11-20T23:48:49.190Z,5.20
2022-11-20T23:51:35.874Z,5.20
2022-11-20T23:54:22.518Z,5.10
2022-11-20T23:57:09.190Z,5.10
2022-11-20T23:59:55.812Z,5.70
